createdAt,value
2019-03-19T00:02:16.394Z,98.80
2019-03-19T00:04:46.018Z,98.80
2019-03-19T00:07:15.777Z,98.70
2019-03-19T00:09:45.490Z,98.70
2019-03-19T00:12:15.089Z,98.60
2019-03-19T00:14:44.755Z,98.60
2019-03-19T00:17:14.371Z,98.70
2019-03-19T00:19:44.045Z,98.60
2019-03-19T00:22:13.650Z,98.50
2019-03-19T00:24:43.283Z,98.50
2019-03-19T00:27:12.936Z,98.40
2019-03-19T00:29:42.526Z,98.40
2019-03-19T00:32:12.187Z,98.30
2019-03-19T00:34:41.811Z,98.20
2019-03-19T00:37:11.431Z,98.20
2019-03-19T00:39:41.132Z,98.20
2019-03-19T00:42:10.725Z,98.10
2019-03-19T00:44:40.317Z,98.00
2019-03-19T00:47:09.951Z,97.90
2019-03-19T00:49:39.567Z,97.90
2019-03-19T00:52:10.359Z,97.90
2019-03-19T00:54:40.016Z,97.90
2019-03-19T00:57:09.687Z,98.00
2019-03-19T00:59:39.301Z,98.00
2019-03-19T01:02:08.902Z,98.00
2019-03-19T01:04:38.528Z,98.00
2019-03-19T01:07:08.254Z,97.90
2019-03-19T01:09:37.867Z,97.90
2019-03-19T01:12:07.514Z,97.90
2019-03-19T01:14:37.154Z,97.90
2019-03-19T01:17:06.765Z,97.90
2019-03-19T01:19:36.382Z,97.90
2019-03-19T01:22:06.037Z,97.80
2019-03-19T01:24:35.628Z,97.70
2019-03-19T01:27:05.275Z,97.70
2019-03-19T01:29:34.898Z,97.60
2019-03-19T01:32:04.534Z,97.60
2019-03-19T01:34:34.139Z,97.60
2019-03-19T01:37:03.907Z,97.60
2019-03-19T01:39:33.512Z,97.50
2019-03-19T01:42:03.113Z,97.50
2019-03-19T01:44:32.753Z,97.60
2019-03-19T01:47:03.679Z,97.60
2019-03-19T01:49:33.408Z,97.50
2019-03-19T01:52:03.002Z,97.60
2019-03-19T01:54:32.617Z,97.60
2019-03-19T01:57:02.290Z,97.60
2019-03-19T01:59:31.885Z,97.50
2019-03-19T02:02:03.970Z,97.50
2019-03-19T02:04:33.588Z,97.50
2019-03-19T02:07:03.194Z,97.50
2019-03-19T02:09:32.846Z,97.50
2019-03-19T02:12:02.440Z,97.20
2019-03-19T02:14:32.091Z,97.50
2019-03-19T02:17:01.697Z,97.40
2019-03-19T02:19:31.326Z,97.40
2019-03-19T02:22:00.939Z,97.50
2019-03-19T02:24:30.590Z,97.50
2019-03-19T02:27:00.226Z,97.50
2019-03-19T02:29:29.835Z,97.50
2019-03-19T02:31:59.445Z,97.40
2019-03-19T02:34:29.095Z,97.40
2019-03-19T02:36:58.701Z,97.40
2019-03-19T02:39:28.319Z,97.50
2019-03-19T02:41:57.935Z,97.50
2019-03-19T02:44:27.582Z,97.50
2019-03-19T02:46:57.241Z,97.50
2019-03-19T02:49:26.841Z,97.50
2019-03-19T02:51:56.447Z,97.60
2019-03-19T02:54:26.091Z,97.60
2019-03-19T02:56:55.688Z,97.60
2019-03-19T02:59:25.334Z,97.60
2019-03-19T03:01:54.974Z,97.50
2019-03-19T03:04:24.598Z,97.50
2019-03-19T03:06:54.200Z,97.40
2019-03-19T03:09:23.844Z,97.40
2019-03-19T03:11:53.469Z,97.40
2019-03-19T03:14:23.083Z,97.50
2019-03-19T03:16:52.740Z,97.60
2019-03-19T03:19:22.359Z,97.70
2019-03-19T03:21:52.005Z,97.80
2019-03-19T03:24:21.648Z,97.90
2019-03-19T03:26:51.311Z,98.10
2019-03-19T03:29:21.451Z,98.20
2019-03-19T03:31:51.171Z,98.40
2019-03-19T03:34:20.733Z,98.50
2019-03-19T03:36:50.355Z,98.70
2019-03-19T03:39:19.973Z,98.80
2019-03-19T03:41:49.597Z,98.80
2019-03-19T03:44:19.235Z,98.90
2019-03-19T03:46:48.858Z,99.00
2019-03-19T03:49:18.486Z,99.00
2019-03-19T03:51:48.092Z,99.10
2019-03-19T03:54:17.701Z,99.20
2019-03-19T03:57:00.875Z,99.20
2019-03-19T03:59:17.430Z,99.30
2019-03-19T04:01:47.089Z,99.30
2019-03-19T04:04:16.682Z,99.40
2019-03-19T04:06:46.324Z,99.60
2019-03-19T04:09:15.956Z,99.60
2019-03-19T04:11:45.605Z,99.60
2019-03-19T04:14:15.243Z,99.60
2019-03-19T04:16:44.947Z,99.70
2019-03-19T04:19:14.566Z,99.70
2019-03-19T04:21:44.304Z,99.70
2019-03-19T04:24:13.911Z,99.60
2019-03-19T04:26:43.521Z,99.60
2019-03-19T04:29:13.145Z,99.50
2019-03-19T04:31:42.793Z,99.50
2019-03-19T04:34:12.437Z,99.50
2019-03-19T04:36:42.056Z,99.30
2019-03-19T04:39:14.622Z,99.30
2019-03-19T04:41:44.238Z,99.20
2019-03-19T04:44:13.870Z,99.20
2019-03-19T04:46:43.541Z,99.20
2019-03-19T04:49:13.163Z,99.20
2019-03-19T04:51:42.835Z,99.10
2019-03-19T04:54:12.536Z,99.10
2019-03-19T04:56:42.139Z,99.10
2019-03-19T04:59:11.837Z,99.10
2019-03-19T05:01:41.478Z,99.10
2019-03-19T05:04:11.095Z,99.10
2019-03-19T05:06:40.715Z,99.10
2019-03-19T05:09:10.394Z,99.20
2019-03-19T05:11:40.003Z,99.20
2019-03-19T05:14:09.623Z,99.30
2019-03-19T05:16:39.300Z,99.30
2019-03-19T05:19:08.914Z,99.30
2019-03-19T05:21:38.533Z,99.30
2019-03-19T05:24:08.175Z,99.30
2019-03-19T05:26:37.822Z,99.30
2019-03-19T05:29:07.450Z,99.20
2019-03-19T05:31:37.096Z,99.20
2019-03-19T05:34:06.746Z,99.20
2019-03-19T05:36:36.376Z,99.10
2019-03-19T05:39:07.683Z,99.00
2019-03-19T05:41:37.307Z,98.80
2019-03-19T05:44:07.030Z,98.70
2019-03-19T05:46:36.702Z,98.50
2019-03-19T05:49:07.078Z,98.30
2019-03-19T05:51:36.764Z,98.20
2019-03-19T05:54:07.673Z,98.00
2019-03-19T05:56:37.341Z,98.00
2019-03-19T05:59:07.038Z,98.30
2019-03-19T06:01:36.716Z,97.90
2019-03-19T06:04:06.475Z,97.80
2019-03-19T06:06:36.830Z,97.70
2019-03-19T06:09:08.330Z,97.70
2019-03-19T06:11:37.996Z,97.60
2019-03-19T06:14:07.729Z,97.50
2019-03-19T06:16:38.679Z,97.10
2019-03-19T06:19:08.358Z,97.30
2019-03-19T06:21:40.716Z,97.20
2019-03-19T06:24:10.349Z,97.10
2019-03-19T06:26:39.963Z,97.10
2019-03-19T06:29:09.729Z,97.00
2019-03-19T06:31:39.518Z,96.80
2019-03-19T06:34:09.158Z,96.60
2019-03-19T06:36:38.846Z,96.20
2019-03-19T06:39:08.734Z,96.00
2019-03-19T06:41:38.354Z,95.80
2019-03-19T06:44:08.006Z,95.60
2019-03-19T06:46:37.633Z,95.70
2019-03-19T06:49:07.238Z,95.60
2019-03-19T06:51:36.912Z,95.60
2019-03-19T06:54:06.553Z,95.30
2019-03-19T06:56:36.170Z,95.30
2019-03-19T06:59:06.908Z,95.10
2019-03-19T07:01:36.546Z,94.80
2019-03-19T07:04:06.193Z,94.30
2019-03-19T07:06:36.551Z,93.60
2019-03-19T07:09:08.519Z,92.30
2019-03-19T07:11:38.158Z,91.40
2019-03-19T07:14:07.759Z,91.00
2019-03-19T07:16:37.401Z,90.00
2019-03-19T07:19:07.047Z,87.10
2019-03-19T07:21:36.699Z,86.40
2019-03-19T07:24:07.588Z,80.90
2019-03-19T07:26:39.734Z,78.90
2019-03-19T07:29:09.371Z,72.20
2019-03-19T07:31:38.984Z,69.20
2019-03-19T07:34:08.610Z,64.20
2019-03-19T07:36:38.266Z,61.50
2019-03-19T07:39:08.623Z,58.40
2019-03-19T07:41:39.532Z,53.60
2019-03-19T07:44:09.161Z,53.40
2019-03-19T07:46:38.796Z,53.80
2019-03-19T07:49:09.387Z,53.00
2019-03-19T07:51:40.239Z,52.30
2019-03-19T07:54:09.994Z,51.90
2019-03-19T07:56:39.660Z,52.60
2019-03-19T07:59:10.559Z,51.50
2019-03-19T08:01:40.235Z,50.40
2019-03-19T08:04:09.951Z,49.00
2019-03-19T08:06:39.596Z,48.00
2019-03-19T08:09:09.266Z,46.80
2019-03-19T08:11:38.943Z,46.20
2019-03-19T08:14:08.590Z,45.40
2019-03-19T08:16:38.251Z,45.20
2019-03-19T08:19:07.941Z,44.80
2019-03-19T08:21:38.775Z,43.80
2019-03-19T08:24:08.419Z,42.80
2019-03-19T08:26:38.061Z,42.20
2019-03-19T08:29:10.250Z,40.50
2019-03-19T08:31:39.913Z,38.20
2019-03-19T08:34:09.561Z,36.30
2019-03-19T08:36:39.255Z,35.80
2019-03-19T08:39:08.946Z,34.90
2019-03-19T08:41:38.599Z,34.10
2019-03-19T08:44:08.255Z,33.30
2019-03-19T08:46:37.905Z,33.30
2019-03-19T08:49:09.257Z,34.20
2019-03-19T08:51:39.593Z,33.40
2019-03-19T08:54:09.250Z,32.20
2019-03-19T08:56:40.221Z,31.40
2019-03-19T08:59:09.880Z,30.40
2019-03-19T09:01:43.435Z,29.90
2019-03-19T09:04:13.143Z,29.10
2019-03-19T09:06:42.798Z,28.10
2019-03-19T09:09:12.477Z,26.90
2019-03-19T09:11:42.142Z,26.60
2019-03-19T09:14:11.781Z,27.10
2019-03-19T09:16:41.461Z,28.40
2019-03-19T09:19:11.132Z,30.10
2019-03-19T09:21:43.233Z,30.60
2019-03-19T09:24:15.945Z,30.00
2019-03-19T09:26:45.594Z,29.20
2019-03-19T09:29:17.341Z,28.40
2019-03-19T09:31:46.274Z,27.90
2019-03-19T09:34:15.978Z,27.10
2019-03-19T09:36:45.635Z,26.40
2019-03-19T09:39:19.234Z,26.10
2019-03-19T09:41:48.906Z,25.70
2019-03-19T09:44:18.714Z,25.20
2019-03-19T09:46:48.422Z,24.90
2019-03-19T09:49:18.088Z,24.70
2019-03-19T09:51:47.738Z,24.00
2019-03-19T09:54:17.426Z,24.30
2019-03-19T09:56:47.119Z,24.50
2019-03-19T09:59:26.609Z,23.90
2019-03-19T10:01:46.446Z,23.50
2019-03-19T10:04:17.398Z,23.70
2019-03-19T10:06:47.320Z,23.60
2019-03-19T10:09:16.740Z,23.90
2019-03-19T10:11:46.464Z,23.40
2019-03-19T10:14:16.142Z,23.80
2019-03-19T10:16:45.775Z,23.60
2019-03-19T10:19:16.706Z,24.50
2019-03-19T10:21:46.362Z,25.10
2019-03-19T10:24:16.109Z,25.70
2019-03-19T10:26:47.067Z,25.40
2019-03-19T10:29:16.754Z,25.10
2019-03-19T10:31:46.698Z,25.40
2019-03-19T10:34:16.479Z,26.30
2019-03-19T10:36:46.252Z,26.40
2019-03-19T10:39:15.934Z,26.40
2019-03-19T10:41:45.608Z,26.50
2019-03-19T10:44:15.259Z,26.40
2019-03-19T10:46:44.930Z,25.40
2019-03-19T10:49:16.943Z,24.70
2019-03-19T10:51:46.598Z,24.60
2019-03-19T10:54:16.258Z,25.20
2019-03-19T10:56:45.914Z,25.20
2019-03-19T10:59:15.543Z,25.50
2019-03-19T11:01:45.284Z,26.50
2019-03-19T11:04:16.113Z,26.70
2019-03-19T11:06:45.742Z,26.70
2019-03-19T11:09:15.455Z,26.90
2019-03-19T11:11:45.075Z,27.50
2019-03-19T11:14:14.722Z,28.20
2019-03-19T11:16:44.526Z,29.30
2019-03-19T11:19:14.174Z,30.40
2019-03-19T11:21:43.858Z,31.50
2019-03-19T11:24:13.524Z,32.80
2019-03-19T11:26:43.150Z,33.30
2019-03-19T11:29:12.814Z,32.20
2019-03-19T11:31:42.482Z,31.60
2019-03-19T11:34:12.122Z,30.60
2019-03-19T11:36:41.777Z,29.60
2019-03-19T11:39:11.407Z,28.70
2019-03-19T11:41:41.119Z,28.10
2019-03-19T11:44:10.758Z,27.70
2019-03-19T11:46:41.600Z,28.40
2019-03-19T11:49:11.256Z,29.10
2019-03-19T11:51:40.910Z,29.30
2019-03-19T11:54:10.560Z,28.60
2019-03-19T11:56:40.202Z,27.90
2019-03-19T11:59:09.899Z,28.10
2019-03-19T12:01:39.590Z,28.40
2019-03-19T12:04:09.216Z,28.90
2019-03-19T12:06:38.866Z,29.80
2019-03-19T12:09:08.517Z,31.70
2019-03-19T12:11:39.491Z,34.10
2019-03-19T12:14:09.132Z,36.00
2019-03-19T12:16:39.889Z,37.90
2019-03-19T12:19:09.510Z,39.40
2019-03-19T12:21:39.142Z,40.70
2019-03-19T12:24:10.072Z,41.60
2019-03-19T12:26:39.680Z,42.30
2019-03-19T12:29:09.290Z,43.20
2019-03-19T12:31:39.026Z,43.10
2019-03-19T12:34:08.710Z,43.50
2019-03-19T12:36:38.287Z,44.00
2019-03-19T12:39:09.802Z,44.40
2019-03-19T12:41:38.334Z,44.50
2019-03-19T12:44:08.724Z,44.70
2019-03-19T12:46:39.754Z,45.00
2019-03-19T12:49:09.387Z,45.30
2019-03-19T12:51:40.177Z,45.60
2019-03-19T12:54:09.842Z,45.90
2019-03-19T12:56:39.536Z,46.20
2019-03-19T12:59:20.242Z,46.60
2019-03-19T13:01:42.586Z,46.80
2019-03-19T13:04:12.251Z,46.70
2019-03-19T13:06:43.222Z,46.70
2019-03-19T13:09:12.905Z,46.60
2019-03-19T13:11:43.869Z,46.90
2019-03-19T13:14:14.406Z,47.50
2019-03-19T13:16:44.086Z,47.80
2019-03-19T13:19:13.784Z,48.10
2019-03-19T13:21:44.624Z,48.40
2019-03-19T13:24:14.246Z,48.50
2019-03-19T13:26:44.010Z,48.50
2019-03-19T13:29:13.639Z,48.50
2019-03-19T13:31:43.287Z,48.50
2019-03-19T13:34:12.942Z,48.50
2019-03-19T13:36:46.194Z,48.90
2019-03-19T13:39:17.507Z,49.20
2019-03-19T13:41:47.176Z,49.60
2019-03-19T13:44:16.825Z,50.10
2019-03-19T13:46:46.445Z,50.20
2019-03-19T13:49:16.090Z,50.10
2019-03-19T13:51:45.699Z,50.00
2019-03-19T13:54:16.723Z,49.90
2019-03-19T13:56:44.986Z,50.10
2019-03-19T13:59:15.929Z,50.20
2019-03-19T14:01:45.438Z,50.30
2019-03-19T14:04:16.364Z,50.30
2019-03-19T14:06:45.986Z,51.20
2019-03-19T14:09:15.592Z,50.90
2019-03-19T14:11:46.522Z,51.20
2019-03-19T14:14:16.138Z,51.20
2019-03-19T14:16:45.803Z,51.20
2019-03-19T14:19:15.472Z,51.10
2019-03-19T14:21:45.137Z,51.10
2019-03-19T14:24:19.571Z,51.20
2019-03-19T14:26:50.430Z,51.30
2019-03-19T14:29:18.842Z,51.50
2019-03-19T14:31:48.489Z,51.60
2019-03-19T14:34:18.162Z,51.80
2019-03-19T14:36:47.770Z,52.70
2019-03-19T14:39:17.379Z,52.30
2019-03-19T14:41:47.024Z,52.20
2019-03-19T14:44:16.636Z,51.80
2019-03-19T14:46:47.586Z,51.50
2019-03-19T14:49:18.467Z,51.60
2019-03-19T14:51:48.075Z,51.60
2019-03-19T14:54:19.059Z,51.50
2019-03-19T14:56:48.691Z,51.50
2019-03-19T14:59:18.339Z,50.70
2019-03-19T15:01:48.022Z,51.10
2019-03-19T15:04:17.687Z,51.30
2019-03-19T15:06:47.357Z,51.60
2019-03-19T15:09:18.238Z,51.60
2019-03-19T15:11:47.894Z,51.20
2019-03-19T15:14:17.505Z,50.40
2019-03-19T15:16:47.120Z,49.70
2019-03-19T15:19:17.998Z,49.70
2019-03-19T15:21:47.668Z,50.00
2019-03-19T15:24:17.492Z,50.50
2019-03-19T15:26:47.115Z,51.10
2019-03-19T15:29:18.162Z,51.80
2019-03-19T15:31:47.834Z,52.00
2019-03-19T15:34:18.801Z,52.20
2019-03-19T15:36:50.948Z,52.40
2019-03-19T15:39:21.894Z,52.50
2019-03-19T15:41:51.507Z,53.00
2019-03-19T15:44:22.331Z,53.30
2019-03-19T15:46:51.942Z,53.40
2019-03-19T15:49:21.558Z,53.50
2019-03-19T15:51:52.493Z,53.70
2019-03-19T15:54:22.091Z,53.80
2019-03-19T15:56:52.943Z,54.10
2019-03-19T15:59:22.550Z,54.50
2019-03-19T16:01:52.190Z,54.70
2019-03-19T16:04:21.832Z,54.60
2019-03-19T16:06:51.442Z,54.50
2019-03-19T16:09:22.342Z,54.50
2019-03-19T16:11:51.997Z,54.70
2019-03-19T16:14:21.708Z,54.90
2019-03-19T16:16:51.402Z,55.00
2019-03-19T16:19:21.040Z,55.20
2019-03-19T16:21:50.678Z,55.40
2019-03-19T16:24:20.332Z,55.90
2019-03-19T16:26:50.033Z,56.30
2019-03-19T16:29:20.878Z,56.60
2019-03-19T16:31:51.324Z,57.00
2019-03-19T16:34:21.496Z,57.30
2019-03-19T16:36:50.022Z,57.70
2019-03-19T16:39:20.933Z,58.00
2019-03-19T16:41:51.787Z,58.40
2019-03-19T16:44:21.454Z,58.80
2019-03-19T16:46:51.115Z,59.30
2019-03-19T16:49:20.777Z,59.70
2019-03-19T16:51:50.483Z,60.30
2019-03-19T16:54:20.152Z,60.60
2019-03-19T16:56:49.793Z,60.90
2019-03-19T16:59:19.528Z,61.70
2019-03-19T17:01:49.142Z,62.30
2019-03-19T17:04:18.758Z,62.90
2019-03-19T17:06:48.474Z,63.30
2019-03-19T17:09:18.112Z,63.80
2019-03-19T17:11:47.733Z,64.20
2019-03-19T17:14:18.642Z,64.60
2019-03-19T17:16:48.263Z,65.20
2019-03-19T17:19:17.887Z,65.60
2019-03-19T17:21:47.591Z,66.40
2019-03-19T17:24:19.746Z,66.90
2019-03-19T17:26:49.401Z,67.80
2019-03-19T17:29:19.087Z,68.50
2019-03-19T17:31:48.778Z,68.80
2019-03-19T17:34:19.658Z,69.20
2019-03-19T17:36:49.438Z,69.80
2019-03-19T17:39:20.353Z,70.40
2019-03-19T17:41:50.050Z,70.90
2019-03-19T17:44:19.716Z,71.40
2019-03-19T17:46:49.345Z,71.80
2019-03-19T17:49:19.043Z,72.30
2019-03-19T17:51:48.666Z,72.90
2019-03-19T17:54:18.351Z,73.40
2019-03-19T17:56:48.046Z,73.90
2019-03-19T17:59:17.699Z,74.20
2019-03-19T18:01:47.334Z,74.60
2019-03-19T18:04:18.802Z,75.00
2019-03-19T18:06:48.444Z,75.50
2019-03-19T18:09:18.062Z,76.00
2019-03-19T18:11:48.930Z,76.90
2019-03-19T18:14:18.603Z,77.50
2019-03-19T18:16:48.224Z,78.00
2019-03-19T18:19:17.894Z,78.60
2019-03-19T18:21:47.532Z,79.30
2019-03-19T18:24:17.145Z,79.40
2019-03-19T18:26:47.107Z,79.60
2019-03-19T18:29:20.365Z,79.90
2019-03-19T18:31:49.998Z,80.90
2019-03-19T18:34:19.607Z,80.60
2019-03-19T18:36:49.286Z,81.00
2019-03-19T18:39:19.598Z,81.20
2019-03-19T18:41:50.401Z,81.20
2019-03-19T18:44:20.167Z,81.40
2019-03-19T18:46:49.782Z,81.60
2019-03-19T18:49:19.443Z,82.10
2019-03-19T18:51:49.084Z,83.10
2019-03-19T18:54:21.175Z,83.30
2019-03-19T18:56:50.843Z,83.10
2019-03-19T18:59:20.459Z,83.20
2019-03-19T19:01:50.128Z,83.30
2019-03-19T19:04:19.771Z,84.00
2019-03-19T19:06:49.474Z,83.80
2019-03-19T19:09:19.088Z,84.10
2019-03-19T19:11:49.987Z,84.30
2019-03-19T19:14:20.884Z,84.60
2019-03-19T19:16:51.409Z,84.80
2019-03-19T19:19:21.033Z,85.20
2019-03-19T19:21:50.665Z,85.60
2019-03-19T19:26:56.167Z,86.50
2019-03-19T19:29:27.243Z,86.80
2019-03-19T19:31:56.861Z,87.30
2019-03-19T19:34:26.516Z,87.70
2019-03-19T19:36:56.191Z,88.00
2019-03-19T19:39:28.258Z,88.20
2019-03-19T19:41:57.887Z,88.40
2019-03-19T19:44:29.960Z,88.50
2019-03-19T19:46:58.426Z,88.80
2019-03-19T19:49:28.036Z,89.10
2019-03-19T19:51:59.034Z,89.30
2019-03-19T19:54:29.874Z,89.60
2019-03-19T19:56:59.506Z,89.80
2019-03-19T19:59:30.351Z,90.00
2019-03-19T20:02:02.388Z,90.20
2019-03-19T20:04:33.272Z,90.40
2019-03-19T20:07:02.900Z,90.50
2019-03-19T20:09:33.814Z,90.70
2019-03-19T20:12:03.455Z,90.80
2019-03-19T20:14:33.258Z,90.90
2019-03-19T20:17:02.924Z,91.10
2019-03-19T20:19:32.622Z,91.40
2019-03-19T20:22:03.507Z,91.30
2019-03-19T20:24:33.371Z,91.40
2019-03-19T20:27:03.166Z,91.60
2019-03-19T20:29:32.808Z,91.70
2019-03-19T20:32:02.422Z,91.80
2019-03-19T20:34:33.539Z,91.90
2019-03-19T20:37:03.198Z,92.20
2019-03-19T20:39:32.822Z,92.30
2019-03-19T20:42:02.502Z,92.40
2019-03-19T20:44:32.166Z,92.40
2019-03-19T20:47:01.801Z,92.60
2019-03-19T20:49:31.428Z,92.70
2019-03-19T20:52:01.137Z,92.80
2019-03-19T20:54:30.762Z,92.80
2019-03-19T20:57:02.939Z,92.90
2019-03-19T20:59:32.618Z,93.00
2019-03-19T21:02:02.262Z,93.10
2019-03-19T21:04:33.926Z,93.20
2019-03-19T21:07:03.588Z,93.40
2019-03-19T21:09:33.260Z,93.50
2019-03-19T21:12:04.151Z,93.50
2019-03-19T21:14:35.075Z,93.60
2019-03-19T21:17:04.940Z,93.70
2019-03-19T21:19:34.889Z,93.80
2019-03-19T21:22:05.997Z,93.90
2019-03-19T21:24:35.703Z,93.90
2019-03-19T21:27:05.361Z,94.00
2019-03-19T21:29:35.014Z,94.10
2019-03-19T21:32:04.666Z,94.10
2019-03-19T21:34:34.314Z,94.20
2019-03-19T21:37:05.193Z,94.30
2019-03-19T21:39:34.876Z,94.30
2019-03-19T21:43:33.981Z,94.40
2019-03-19T21:46:03.710Z,94.50
2019-03-19T21:48:33.341Z,94.50
2019-03-19T21:51:04.310Z,94.60
2019-03-19T21:53:33.958Z,94.70
2019-03-19T21:56:03.665Z,95.00
2019-03-19T21:58:33.297Z,94.80
2019-03-19T22:01:02.913Z,94.90
2019-03-19T22:03:32.608Z,94.90
2019-03-19T22:06:02.242Z,95.10
2019-03-19T22:08:31.965Z,95.20
2019-03-19T22:11:02.904Z,95.20
2019-03-19T22:13:32.531Z,95.30
2019-03-19T22:16:03.355Z,95.30
2019-03-19T22:18:32.966Z,95.60
2019-03-19T22:21:02.599Z,95.50
2019-03-19T22:23:32.217Z,95.50
2019-03-19T22:26:04.337Z,95.50
2019-03-19T22:28:33.946Z,95.60
2019-03-19T22:31:03.565Z,95.60
2019-03-19T22:33:33.541Z,95.70
2019-03-19T22:36:02.951Z,96.00
2019-03-19T22:38:32.567Z,95.80
2019-03-19T22:41:03.524Z,95.80
2019-03-19T22:43:33.148Z,95.80
2019-03-19T22:46:02.754Z,95.90
2019-03-19T22:48:33.770Z,96.00
2019-03-19T22:51:04.709Z,96.00
2019-03-19T22:53:34.314Z,96.10
2019-03-19T22:56:03.946Z,96.10
2019-03-19T22:58:34.862Z,96.10
2019-03-19T23:01:04.488Z,96.30
2019-03-19T23:03:34.117Z,96.40
2019-03-19T23:06:03.753Z,96.70
2019-03-19T23:08:34.372Z,96.50
2019-03-19T23:11:04.053Z,96.60
2019-03-19T23:13:33.741Z,96.60
2019-03-19T23:16:03.338Z,96.70
2019-03-19T23:18:32.990Z,96.70
2019-03-19T23:21:02.628Z,97.00
2019-03-19T23:23:32.575Z,96.70
2019-03-19T23:26:02.183Z,96.80
2019-03-19T23:28:31.790Z,96.80
2019-03-19T23:31:01.431Z,96.90
2019-03-19T23:33:31.060Z,96.90
2019-03-19T23:36:00.774Z,96.90
2019-03-19T23:38:30.410Z,96.90
2019-03-19T23:41:00.068Z,96.90
2019-03-19T23:43:29.697Z,97.00
2019-03-19T23:45:59.314Z,97.10
2019-03-19T23:48:28.937Z,97.20
2019-03-19T23:50:58.561Z,97.40
2019-03-19T23:53:28.165Z,97.30
2019-03-19T23:55:57.797Z,97.30
2019-03-19T23:58:28.819Z,97.30
